createdAt,value
2023-03-14T00:00:26.766Z,0.70
2023-03-14T00:02:54.871Z,1.63
2023-03-14T00:05:22.078Z,1.20
2023-03-14T00:07:49.194Z,1.43
2023-03-14T00:10:16.787Z,1.57
2023-03-14T00:12:43.925Z,1.17
2023-03-14T00:15:11.591Z,0.80
2023-03-14T00:17:38.930Z,0.80
2023-03-14T00:20:09.310Z,0.80
2023-03-14T00:22:37.278Z,0.80
2023-03-14T00:25:04.667Z,1.37
2023-03-14T00:27:32.079Z,1.47
2023-03-14T00:29:59.265Z,0.83
2023-03-14T00:32:26.354Z,2.00
2023-03-14T00:34:53.486Z,1.13
2023-03-14T00:37:20.569Z,1.23
2023-03-14T00:39:48.598Z,2.17
2023-03-14T00:42:15.760Z,1.73
2023-03-14T00:44:42.831Z,1.50
2023-03-14T00:47:09.885Z,1.73
2023-03-14T00:49:37.056Z,2.30
2023-03-14T00:52:04.105Z,1.73
2023-03-14T00:54:31.481Z,2.20
2023-03-14T00:56:58.569Z,2.00
2023-03-14T00:59:25.608Z,2.83
2023-03-14T01:01:52.719Z,1.53
2023-03-14T01:04:19.845Z,2.33
2023-03-14T01:06:47.043Z,1.77
2023-03-14T01:09:14.192Z,3.07
2023-03-14T01:11:41.371Z,2.93
2023-03-14T01:14:08.426Z,1.87
2023-03-14T01:16:36.310Z,2.10
2023-03-14T01:19:04.147Z,2.37
2023-03-14T01:21:32.438Z,2.07
2023-03-14T01:24:00.154Z,2.17
2023-03-14T01:26:28.619Z,2.00
2023-03-14T01:28:56.358Z,2.23
2023-03-14T01:31:23.977Z,2.50
2023-03-14T01:33:51.370Z,2.57
2023-03-14T01:36:18.438Z,2.20
2023-03-14T01:38:46.065Z,3.53
2023-03-14T01:41:21.329Z,2.20
2023-03-14T01:43:48.900Z,2.97
2023-03-14T01:46:19.222Z,2.97
2023-03-14T01:48:52.804Z,2.30
2023-03-14T01:51:22.512Z,2.67
2023-03-14T01:53:50.872Z,2.40
2023-03-14T01:56:19.241Z,2.83
2023-03-14T01:58:49.294Z,2.60
2023-03-14T02:01:18.085Z,2.30
2023-03-14T02:03:55.807Z,2.37
2023-03-14T02:06:25.862Z,2.30
2023-03-14T02:08:53.456Z,2.80
2023-03-14T02:11:20.595Z,2.50
2023-03-14T02:13:47.670Z,2.83
2023-03-14T02:16:14.827Z,3.57
2023-03-14T02:18:42.028Z,3.03
2023-03-14T02:21:27.683Z,2.50
2023-03-14T02:23:57.764Z,2.33
2023-03-14T02:26:29.456Z,3.20
2023-03-14T02:28:56.603Z,3.37
2023-03-14T02:31:23.895Z,2.87
2023-03-14T02:33:51.421Z,3.10
2023-03-14T02:36:20.412Z,2.50
2023-03-14T02:38:47.476Z,2.43
2023-03-14T02:41:15.029Z,2.80
2023-03-14T02:43:42.103Z,2.43
2023-03-14T02:46:10.659Z,2.67
2023-03-14T02:48:41.358Z,2.77
2023-03-14T02:51:09.124Z,3.10
2023-03-14T02:53:36.993Z,2.40
2023-03-14T02:56:04.293Z,2.50
2023-03-14T02:58:31.398Z,2.37
2023-03-14T03:00:58.682Z,2.00
2023-03-14T03:03:25.889Z,2.00
2023-03-14T03:05:53.941Z,1.77
2023-03-14T03:08:21.944Z,1.70
2023-03-14T03:10:49.168Z,1.33
2023-03-14T03:13:16.467Z,1.40
2023-03-14T03:15:43.673Z,1.50
2023-03-14T03:18:11.040Z,3.00
2023-03-14T03:20:38.145Z,1.20
2023-03-14T03:23:05.323Z,0.80
2023-03-14T03:25:32.467Z,1.03
2023-03-14T03:27:59.543Z,0.50
2023-03-14T03:30:26.667Z,0.87
2023-03-14T03:32:53.812Z,0.50
2023-03-14T03:35:20.909Z,0.70
2023-03-14T03:37:47.979Z,0.40
2023-03-14T03:40:15.049Z,0.40
2023-03-14T03:42:42.163Z,1.17
2023-03-14T03:45:09.593Z,0.27
2023-03-14T03:47:36.670Z,0.63
2023-03-14T03:50:03.944Z,0.50
2023-03-14T03:52:31.054Z,0.13
2023-03-14T03:54:58.196Z,0.30
2023-03-14T03:57:25.256Z,0.67
2023-03-14T03:59:52.395Z,0.87
2023-03-14T04:02:19.507Z,0.87
2023-03-14T04:04:46.695Z,0.80
2023-03-14T04:07:14.965Z,0.30
2023-03-14T04:09:42.034Z,0.20
2023-03-14T04:12:09.154Z,0.23
2023-03-14T04:14:36.374Z,0.30
2023-03-14T04:17:03.532Z,0.37
2023-03-14T04:19:30.597Z,0.23
2023-03-14T04:21:57.659Z,0.20
2023-03-14T04:24:24.742Z,0.30
2023-03-14T04:26:51.787Z,0.20
2023-03-14T04:29:19.163Z,0.20
2023-03-14T04:31:46.220Z,0.33
2023-03-14T04:34:13.362Z,0.30
2023-03-14T04:36:40.496Z,0.20
2023-03-14T04:39:07.611Z,0.40
2023-03-14T04:41:34.687Z,0.50
2023-03-14T04:44:01.741Z,0.50
2023-03-14T04:46:28.878Z,0.50
2023-03-14T04:48:57.570Z,0.43
2023-03-14T04:51:28.154Z,0.63
2023-03-14T04:53:55.759Z,1.20
2023-03-14T04:56:23.212Z,1.03
2023-03-14T04:58:50.288Z,0.20
2023-03-14T05:01:18.705Z,1.23
2023-03-14T05:03:45.828Z,1.27
2023-03-14T05:06:13.063Z,0.80
2023-03-14T05:08:40.139Z,2.97
2023-03-14T05:11:07.410Z,1.60
2023-03-14T05:13:34.463Z,0.50
2023-03-14T05:16:05.253Z,0.80
2023-03-14T05:18:32.395Z,1.17
2023-03-14T05:20:59.652Z,1.80
2023-03-14T05:23:26.830Z,3.67
2023-03-14T05:25:53.978Z,2.63
2023-03-14T05:28:21.138Z,3.93
2023-03-14T05:30:48.233Z,5.00
2023-03-14T05:33:15.328Z,3.93
2023-03-14T05:35:44.812Z,1.90
2023-03-14T05:38:11.901Z,2.27
2023-03-14T05:40:38.944Z,0.90
2023-03-14T05:43:08.804Z,3.10
2023-03-14T05:45:36.678Z,1.90
2023-03-14T05:48:03.826Z,1.07
2023-03-14T05:50:30.926Z,2.60
2023-03-14T05:52:58.033Z,1.17
2023-03-14T05:55:25.098Z,2.07
2023-03-14T05:57:52.149Z,2.33
2023-03-14T06:00:19.479Z,1.27
2023-03-14T06:02:47.670Z,3.17
2023-03-14T06:05:14.859Z,3.57
2023-03-14T06:07:41.958Z,2.33
2023-03-14T06:10:09.164Z,2.00
2023-03-14T06:12:36.289Z,1.77
2023-03-14T06:15:03.376Z,1.63
2023-03-14T06:17:30.454Z,1.37
2023-03-14T06:19:57.533Z,1.93
2023-03-14T06:22:24.668Z,2.43
2023-03-14T06:24:51.749Z,0.63
2023-03-14T06:27:18.866Z,2.73
2023-03-14T06:29:45.925Z,2.27
2023-03-14T06:32:13.024Z,2.97
2023-03-14T06:34:40.115Z,3.10
2023-03-14T06:37:07.258Z,2.20
2023-03-14T06:39:34.354Z,4.03
2023-03-14T06:42:01.422Z,1.10
2023-03-14T06:44:28.516Z,3.07
2023-03-14T06:46:55.568Z,1.63
2023-03-14T06:49:22.773Z,3.73
2023-03-14T06:51:49.860Z,5.33
2023-03-14T06:54:16.949Z,2.07
2023-03-14T06:56:44.007Z,1.23
2023-03-14T06:59:11.140Z,2.03
2023-03-14T07:01:38.297Z,4.73
2023-03-14T07:04:05.498Z,1.33
2023-03-14T07:06:32.615Z,2.47
2023-03-14T07:08:59.736Z,1.20
2023-03-14T07:11:27.812Z,2.23
2023-03-14T07:13:54.998Z,1.30
2023-03-14T07:16:22.151Z,3.20
2023-03-14T07:18:50.245Z,1.27
2023-03-14T07:21:17.385Z,1.77
2023-03-14T07:23:44.484Z,3.27
2023-03-14T07:26:11.562Z,1.70
2023-03-14T07:28:38.668Z,0.80
2023-03-14T07:31:05.927Z,1.70
2023-03-14T07:33:33.237Z,1.53
2023-03-14T07:36:00.338Z,2.23
2023-03-14T07:38:27.626Z,1.40
2023-03-14T07:41:01.609Z,2.03
2023-03-14T07:43:28.698Z,0.93
2023-03-14T07:45:59.376Z,1.73
2023-03-14T07:48:27.831Z,2.83
2023-03-14T07:50:55.585Z,1.07
2023-03-14T07:53:23.016Z,3.57
2023-03-14T07:55:51.830Z,2.33
2023-03-14T07:58:18.925Z,4.77
2023-03-14T08:00:46.004Z,2.57
2023-03-14T08:03:13.059Z,2.73
2023-03-14T08:05:40.978Z,1.87
2023-03-14T08:08:08.027Z,2.80
2023-03-14T08:10:35.128Z,1.27
2023-03-14T08:13:02.487Z,2.67
2023-03-14T08:15:32.070Z,2.83
2023-03-14T08:17:59.201Z,5.37
2023-03-14T08:20:27.719Z,1.77
2023-03-14T08:22:56.615Z,1.77
2023-03-14T08:25:23.726Z,2.60
2023-03-14T08:27:50.842Z,1.23
2023-03-14T08:30:18.990Z,1.30
2023-03-14T08:32:46.322Z,1.70
2023-03-14T08:35:13.959Z,1.40
2023-03-14T08:37:41.038Z,3.27
2023-03-14T08:40:09.594Z,1.53
2023-03-14T08:42:36.794Z,1.23
2023-03-14T08:45:04.588Z,2.60
2023-03-14T08:47:31.736Z,2.10
2023-03-14T08:49:58.864Z,1.83
2023-03-14T08:52:26.066Z,2.67
2023-03-14T08:54:53.268Z,1.90
2023-03-14T08:57:22.840Z,1.37
2023-03-14T08:59:49.890Z,2.37
2023-03-14T09:02:17.049Z,2.53
2023-03-14T09:04:44.110Z,0.40
2023-03-14T09:07:11.241Z,0.33
2023-03-14T09:09:38.438Z,0.50
2023-03-14T09:12:05.987Z,1.70
2023-03-14T09:14:33.149Z,0.90
2023-03-14T09:17:00.257Z,1.37
2023-03-14T09:19:27.304Z,0.60
2023-03-14T09:21:54.796Z,1.97
2023-03-14T09:24:21.886Z,1.00
2023-03-14T09:26:48.993Z,0.73
2023-03-14T09:29:16.051Z,1.63
2023-03-14T09:31:43.097Z,1.40
2023-03-14T09:34:10.227Z,1.40
2023-03-14T09:36:39.119Z,1.20
2023-03-14T09:39:06.320Z,1.57
2023-03-14T09:41:34.683Z,1.87
2023-03-14T09:44:05.200Z,0.93
2023-03-14T09:46:33.437Z,1.07
2023-03-14T09:49:00.784Z,0.93
2023-03-14T09:51:28.006Z,1.40
2023-03-14T09:53:55.173Z,0.53
2023-03-14T09:56:25.685Z,2.77
2023-03-14T09:59:00.813Z,0.67
2023-03-14T10:01:32.157Z,1.10
2023-03-14T10:04:02.370Z,1.20
2023-03-14T10:06:30.959Z,0.60
2023-03-14T10:08:58.411Z,0.97
2023-03-14T10:11:25.897Z,1.83
2023-03-14T10:14:05.049Z,0.60
2023-03-14T10:16:36.408Z,3.70
2023-03-14T10:19:05.140Z,0.87
2023-03-14T10:21:34.261Z,0.67
2023-03-14T10:24:11.576Z,2.00
2023-03-14T10:26:38.864Z,0.70
2023-03-14T10:29:10.939Z,1.57
2023-03-14T10:31:48.979Z,1.57
2023-03-14T10:34:23.246Z,1.70
2023-03-14T10:36:54.991Z,1.23
2023-03-14T10:39:28.122Z,0.97
2023-03-14T10:42:15.482Z,1.70
2023-03-14T10:44:43.016Z,1.87
2023-03-14T10:47:17.239Z,0.30
2023-03-14T10:49:44.391Z,0.43
2023-03-14T10:52:14.587Z,2.33
2023-03-14T10:54:41.696Z,4.60
2023-03-14T10:57:09.441Z,0.87
2023-03-14T10:59:40.952Z,1.10
2023-03-14T11:02:16.339Z,0.90
2023-03-14T11:05:05.279Z,3.60
2023-03-14T11:07:37.847Z,1.50
2023-03-14T11:10:23.764Z,0.70
2023-03-14T11:13:03.363Z,1.70
2023-03-14T11:15:39.787Z,2.20
2023-03-14T11:18:25.107Z,0.80
2023-03-14T11:20:52.221Z,0.97
2023-03-14T11:23:23.521Z,0.80
2023-03-14T11:25:56.779Z,0.30
2023-03-14T11:28:38.527Z,0.70
2023-03-14T11:31:25.937Z,1.37
2023-03-14T11:34:13.348Z,0.43
2023-03-14T11:36:42.948Z,0.97
2023-03-14T11:39:19.917Z,0.57
2023-03-14T11:41:54.366Z,1.03
2023-03-14T11:44:24.098Z,0.80
2023-03-14T11:46:51.413Z,0.77
2023-03-14T11:49:39.586Z,0.30
2023-03-14T11:52:10.189Z,2.13
2023-03-14T11:54:37.258Z,0.60
2023-03-14T11:57:12.515Z,0.27
2023-03-14T11:59:45.713Z,0.50
2023-03-14T12:02:31.292Z,1.13
2023-03-14T12:05:04.822Z,1.63
2023-03-14T12:07:37.233Z,1.33
2023-03-14T12:10:04.770Z,1.00
2023-03-14T12:12:32.563Z,1.27
2023-03-14T12:15:04.118Z,1.60
2023-03-14T12:17:38.068Z,1.77
2023-03-14T12:20:18.187Z,0.97
2023-03-14T12:22:55.713Z,0.40
2023-03-14T12:25:24.466Z,0.20
2023-03-14T12:28:05.236Z,0.73
2023-03-14T12:30:33.392Z,2.43
2023-03-14T12:33:12.870Z,0.27
2023-03-14T12:35:42.872Z,1.10
2023-03-14T12:38:29.290Z,1.33
2023-03-14T12:40:56.389Z,0.70
2023-03-14T12:43:34.202Z,1.83
2023-03-14T12:46:10.978Z,0.70
2023-03-14T12:48:39.459Z,1.90
2023-03-14T12:51:13.615Z,0.50
2023-03-14T12:53:40.990Z,0.70
2023-03-14T12:56:26.708Z,1.03
2023-03-14T12:59:07.624Z,0.67
2023-03-14T13:01:35.805Z,0.20
2023-03-14T13:04:10.502Z,0.53
2023-03-14T13:06:59.814Z,0.77
2023-03-14T13:09:33.426Z,0.50
2023-03-14T13:12:05.541Z,0.57
2023-03-14T13:14:33.313Z,2.13
2023-03-14T13:17:25.170Z,0.87
2023-03-14T13:19:55.156Z,0.73
2023-03-14T13:22:25.842Z,0.67
2023-03-14T13:25:00.262Z,0.43
2023-03-14T13:27:28.074Z,0.67
2023-03-14T13:29:55.297Z,0.40
2023-03-14T13:32:23.422Z,1.00
2023-03-14T13:34:50.613Z,0.50
2023-03-14T13:37:25.525Z,0.30
2023-03-14T13:39:54.396Z,0.27
2023-03-14T13:42:21.542Z,0.23
2023-03-14T13:44:48.756Z,0.10
2023-03-14T13:47:20.900Z,0.30
2023-03-14T13:49:48.430Z,1.03
2023-03-14T13:52:24.400Z,0.77
2023-03-14T13:54:55.002Z,0.30
2023-03-14T13:57:22.330Z,1.07
2023-03-14T14:00:11.062Z,1.43
2023-03-14T14:02:38.865Z,0.30
2023-03-14T14:05:06.374Z,0.97
2023-03-14T14:07:33.611Z,0.17
2023-03-14T14:10:04.848Z,1.27
2023-03-14T14:12:37.322Z,0.43
2023-03-14T14:15:07.515Z,0.83
2023-03-14T14:17:34.698Z,1.50
2023-03-14T14:20:04.206Z,0.20
2023-03-14T14:22:31.552Z,0.57
2023-03-14T14:24:58.701Z,0.33
2023-03-14T14:27:37.876Z,0.40
2023-03-14T14:30:20.285Z,1.27
2023-03-14T14:32:48.703Z,0.10
2023-03-14T14:35:25.932Z,0.67
2023-03-14T14:37:53.441Z,0.40
2023-03-14T14:40:25.470Z,0.53
2023-03-14T14:42:53.165Z,0.90
2023-03-14T14:45:21.328Z,1.33
2023-03-14T14:48:00.552Z,0.60
2023-03-14T14:50:30.675Z,0.30
2023-03-14T14:52:59.148Z,0.23
2023-03-14T14:55:31.043Z,0.53
2023-03-14T14:57:58.321Z,0.20
2023-03-14T15:00:26.688Z,0.10
2023-03-14T15:02:56.029Z,0.13
2023-03-14T15:05:27.567Z,0.47
2023-03-14T15:07:54.835Z,0.40
2023-03-14T15:10:23.743Z,0.63
2023-03-14T15:12:50.922Z,0.10
2023-03-14T15:15:18.399Z,0.17
2023-03-14T15:17:45.495Z,0.10
2023-03-14T15:20:14.257Z,0.20
2023-03-14T15:22:41.627Z,0.40
2023-03-14T15:25:12.941Z,0.23
2023-03-14T15:27:45.811Z,0.80
2023-03-14T15:30:16.425Z,0.10
2023-03-14T15:32:43.545Z,0.57
2023-03-14T15:35:10.881Z,1.33
2023-03-14T15:37:38.032Z,0.20
2023-03-14T15:40:12.726Z,0.20
2023-03-14T15:42:39.865Z,0.37
2023-03-14T15:45:07.363Z,0.77
2023-03-14T15:47:34.401Z,0.20
2023-03-14T15:50:01.477Z,0.60
2023-03-14T15:52:28.573Z,0.40
2023-03-14T15:54:55.671Z,0.60
2023-03-14T15:57:22.847Z,0.73
2023-03-14T15:59:50.033Z,0.50
2023-03-14T16:02:17.153Z,0.60
2023-03-14T16:04:44.826Z,0.40
2023-03-14T16:07:12.039Z,0.30
2023-03-14T16:09:39.111Z,1.50
2023-03-14T16:12:08.389Z,2.17
2023-03-14T16:14:35.501Z,0.90
2023-03-14T16:17:02.622Z,0.47
2023-03-14T16:19:31.772Z,0.50
2023-03-14T16:21:58.948Z,0.50
2023-03-14T16:24:26.060Z,0.50
2023-03-14T16:26:53.160Z,0.50
2023-03-14T16:29:20.237Z,0.10
2023-03-14T16:31:47.544Z,0.20
2023-03-14T16:34:14.719Z,1.17
2023-03-14T16:36:41.898Z,0.10
2023-03-14T16:39:09.013Z,0.93
2023-03-14T16:41:36.098Z,1.33
2023-03-14T16:44:03.242Z,1.00
2023-03-14T16:46:30.544Z,1.40
2023-03-14T16:48:58.521Z,0.83
2023-03-14T16:51:25.709Z,1.60
2023-03-14T16:53:52.769Z,0.70
2023-03-14T16:56:20.219Z,1.57
2023-03-14T16:58:47.918Z,0.80
2023-03-14T17:01:18.097Z,1.30
2023-03-14T17:03:49.445Z,3.17
2023-03-14T17:06:18.221Z,2.03
2023-03-14T17:08:45.478Z,1.20
2023-03-14T17:11:12.583Z,1.67
2023-03-14T17:13:40.092Z,2.67
2023-03-14T17:16:07.587Z,1.03
2023-03-14T17:18:34.725Z,1.13
2023-03-14T17:21:02.045Z,1.40
2023-03-14T17:23:30.417Z,0.57
2023-03-14T17:25:57.565Z,1.43
2023-03-14T17:28:25.748Z,1.97
2023-03-14T17:31:01.817Z,2.10
2023-03-14T17:33:28.921Z,0.50
2023-03-14T17:35:56.072Z,0.30
2023-03-14T17:38:23.168Z,0.23
2023-03-14T17:40:50.500Z,0.60
2023-03-14T17:43:18.927Z,0.50
2023-03-14T17:45:46.488Z,1.57
2023-03-14T17:48:13.532Z,1.23
2023-03-14T17:50:41.066Z,1.93
2023-03-14T17:53:08.832Z,0.30
2023-03-14T17:55:35.925Z,0.73
2023-03-14T17:58:05.782Z,0.70
2023-03-14T18:00:32.833Z,2.27
2023-03-14T18:03:00.142Z,3.50
2023-03-14T18:05:27.492Z,1.83
2023-03-14T18:07:54.564Z,0.93
2023-03-14T18:10:21.675Z,2.97
2023-03-14T18:12:48.757Z,1.80
2023-03-14T18:15:15.838Z,1.10
2023-03-14T18:17:42.923Z,2.30
2023-03-14T18:20:14.471Z,2.63
2023-03-14T18:22:42.152Z,3.33
2023-03-14T18:25:10.237Z,3.43
2023-03-14T18:27:38.017Z,1.97
2023-03-14T18:30:05.894Z,2.50
2023-03-14T18:32:33.069Z,1.23
2023-03-14T18:35:00.632Z,5.37
2023-03-14T18:37:27.892Z,3.23
2023-03-14T18:39:55.021Z,3.20
2023-03-14T18:42:22.135Z,2.90
2023-03-14T18:44:49.197Z,4.20
2023-03-14T18:47:16.343Z,3.97
2023-03-14T18:49:43.504Z,2.83
2023-03-14T18:52:10.539Z,1.20
2023-03-14T18:54:37.653Z,2.30
2023-03-14T18:57:04.718Z,2.00
2023-03-14T18:59:31.765Z,2.33
2023-03-14T19:01:58.857Z,2.00
2023-03-14T19:04:25.962Z,1.43
2023-03-14T19:06:54.056Z,2.70
2023-03-14T19:09:21.265Z,1.53
2023-03-14T19:11:48.346Z,1.90
2023-03-14T19:14:17.588Z,4.30
2023-03-14T19:16:44.804Z,1.40
2023-03-14T19:19:11.897Z,3.10
2023-03-14T19:21:39.003Z,3.70
2023-03-14T19:24:06.258Z,2.67
2023-03-14T19:26:35.225Z,3.00
2023-03-14T19:29:02.382Z,3.47
2023-03-14T19:31:29.664Z,1.60
2023-03-14T19:33:56.844Z,2.40
2023-03-14T19:36:31.752Z,3.17
2023-03-14T19:39:01.885Z,2.47
2023-03-14T19:41:29.399Z,2.73
2023-03-14T19:43:56.552Z,3.37
2023-03-14T19:46:24.156Z,1.67
2023-03-14T19:48:54.197Z,3.47
2023-03-14T19:51:24.768Z,2.73
2023-03-14T19:53:52.270Z,2.90
2023-03-14T19:56:24.351Z,2.00
2023-03-14T19:58:52.718Z,3.10
2023-03-14T20:01:19.928Z,6.13
2023-03-14T20:03:47.021Z,9.20
2023-03-14T20:06:14.314Z,3.23
2023-03-14T20:08:43.070Z,3.13
2023-03-14T20:11:10.820Z,4.87
2023-03-14T20:13:37.964Z,3.70
2023-03-14T20:16:05.446Z,3.73
2023-03-14T20:18:32.601Z,5.57
2023-03-14T20:21:00.045Z,6.33
2023-03-14T20:23:27.216Z,3.70
2023-03-14T20:25:57.106Z,3.60
2023-03-14T20:28:24.270Z,2.50
2023-03-14T20:30:51.775Z,3.37
2023-03-14T20:33:19.783Z,3.10
2023-03-14T20:35:53.330Z,5.40
2023-03-14T20:38:20.448Z,3.87
2023-03-14T20:40:47.593Z,3.27
2023-03-14T20:43:14.683Z,5.13
2023-03-14T20:45:41.776Z,2.57
2023-03-14T20:48:08.869Z,4.43
2023-03-14T20:50:35.957Z,4.50
2023-03-14T20:53:03.129Z,4.63
2023-03-14T20:55:30.600Z,5.43
2023-03-14T20:57:57.741Z,2.10
2023-03-14T21:00:24.810Z,3.07
2023-03-14T21:02:54.156Z,9.30
2023-03-14T21:05:21.848Z,4.70
2023-03-14T21:07:49.094Z,5.73
2023-03-14T21:10:16.686Z,3.73
2023-03-14T21:12:43.797Z,2.87
2023-03-14T21:15:14.272Z,6.00
2023-03-14T21:17:41.936Z,5.30
2023-03-14T21:20:12.929Z,5.97
2023-03-14T21:22:40.053Z,4.73
2023-03-14T21:25:07.552Z,2.73
2023-03-14T21:27:37.748Z,4.07
2023-03-14T21:30:05.137Z,4.37
2023-03-14T21:32:32.351Z,7.27
2023-03-14T21:34:59.478Z,5.47
2023-03-14T21:37:27.886Z,4.67
2023-03-14T21:39:55.320Z,3.90
2023-03-14T21:42:23.489Z,4.73
2023-03-14T21:44:52.173Z,6.23
2023-03-14T21:47:23.318Z,3.17
2023-03-14T21:49:51.232Z,6.53
2023-03-14T21:52:18.846Z,11.03
2023-03-14T21:54:45.982Z,4.80
2023-03-14T21:57:14.256Z,6.70
2023-03-14T21:59:42.415Z,5.73
2023-03-14T22:02:12.665Z,7.27
2023-03-14T22:04:40.134Z,4.27
2023-03-14T22:07:08.606Z,8.13
2023-03-14T22:09:36.432Z,7.10
2023-03-14T22:12:03.635Z,4.10
2023-03-14T22:14:30.680Z,7.67
2023-03-14T22:16:59.890Z,4.63
2023-03-14T22:19:27.509Z,3.67
2023-03-14T22:21:54.679Z,3.30
2023-03-14T22:24:21.755Z,3.50
2023-03-14T22:26:52.007Z,4.80
2023-03-14T22:29:19.182Z,6.20
2023-03-14T22:31:46.371Z,4.90
2023-03-14T22:34:13.515Z,7.97
2023-03-14T22:36:40.624Z,4.10
2023-03-14T22:39:07.815Z,5.13
2023-03-14T22:41:35.204Z,3.00
2023-03-14T22:44:02.417Z,5.00
2023-03-14T22:46:29.509Z,7.10
2023-03-14T22:48:56.561Z,6.97
2023-03-14T22:51:23.628Z,3.40
2023-03-14T22:53:50.689Z,3.20
2023-03-14T22:56:17.742Z,3.93
2023-03-14T22:58:44.858Z,3.87
2023-03-14T23:01:14.831Z,4.30
2023-03-14T23:03:41.963Z,5.77
2023-03-14T23:06:09.203Z,4.07
2023-03-14T23:08:37.864Z,3.53
2023-03-14T23:11:06.220Z,5.40
2023-03-14T23:13:33.420Z,3.00
2023-03-14T23:16:01.192Z,5.27
2023-03-14T23:18:28.617Z,6.90
2023-03-14T23:21:09.410Z,3.77
2023-03-14T23:23:36.743Z,5.63
2023-03-14T23:26:04.961Z,3.00
2023-03-14T23:28:32.338Z,2.70
2023-03-14T23:30:59.756Z,4.67
2023-03-14T23:33:27.533Z,5.30
2023-03-14T23:35:55.213Z,3.50
2023-03-14T23:38:24.551Z,3.70
2023-03-14T23:40:51.661Z,2.57
2023-03-14T23:43:19.089Z,6.17
2023-03-14T23:45:53.133Z,3.63
2023-03-14T23:48:21.038Z,3.70
2023-03-14T23:50:48.155Z,8.13
2023-03-14T23:53:15.213Z,4.80
2023-03-14T23:55:42.272Z,7.60
2023-03-14T23:58:09.356Z,2.90
